Currently 57°F in French Valley, California, USA
57°F
64°F / 51°F
11 mph S
0.01"
Wednesday, March 20, 2019 5:22 PM PDT

French Valley, California Weather Summary
Last 36 Hours

Temperature Winds Hourly Humidity Dewpoint
Time Report Norm Report Norm Max Gusts Precip. Rpt. Norm Rpt. Norm Pressure
1Wed 05:22 PM  57.1°F  67°F  11 mph S  7 mph  19 mph  0.00"  77%  53%  50°F  49°F  30.09"
Wed 05:00 PM  57.9°F  68°F  9 mph S  7 mph  18 mph  0.00"  76%  51%  50°F  49°F  30.09"
Wed 04:00 PM  58.5°F  70°F  9 mph S  7 mph  16 mph  0.00"  68%  48%  47°F  48°F  30.09"
Wed 03:00 PM  57.6°F  70°F  6 mph SW  6 mph  16 mph  0.01"  81%  47%  51°F  48°F  30.08"
Wed 02:00 PM  56.2°F  70°F  4 mph W  6 mph  22 mph  0.00"  87%  46%  52°F  47°F  30.09"
Wed 01:00 PM  60.6°F  68°F  8 mph SW  5 mph  11 mph  0.00"  71%  48%  51°F  47°F  30.10"
2Wed 12:35 PM  63.5°F  68°F  7 mph SW  4 mph  10 mph  ----  65%  50%  51°F  48°F  30.11"
Wed 12:00 PM  60.8°F  66°F  6 mph SE  4 mph  11 mph  0.00"  68%  53%  50°F  48°F  30.12"
Wed 11:00 AM  59.6°F  63°F  5 mph SE  3 mph  10 mph  0.00"  73%  61%  50°F  49°F  30.14"
Wed 10:00 AM  56.2°F  59°F  3 mph SE  3 mph  7 mph  0.00"  87%  71%  52°F  49°F  30.14"
Wed 09:00 AM  53.4°F  55°F  4 mph S  2 mph  3 mph  0.00"  95%  81%  52°F  49°F  30.14"
Wed 08:00 AM  52.8°F  51°F  2 mph SE  1 mph  5 mph  0.00"  97%  87%  52°F  47°F  30.12"
Wed 07:00 AM  52.0°F  49°F  calm  1 mph  2 mph  0.00"  97%  88%  51°F  46°F  30.11"
Wed 06:00 AM  51.1°F  50°F  calm  1 mph  none  0.00"  97%  88%  50°F  46°F  30.10"
3Wed 05:48 AM  50.8°F  50°F  calm  1 mph  none  ----  97%  88%  50°F  46°F  30.09"
Wed 05:00 AM  51.8°F  50°F  calm  1 mph  4 mph  0.00"  96%  87%  51°F  47°F  30.10"
Wed 04:00 AM  52.3°F  51°F  3 mph E  1 mph  4 mph  0.00"  96%  87%  51°F  47°F  30.09"
Wed 03:00 AM  53.0°F  51°F  calm  1 mph  1 mph  0.00"  95%  86%  52°F  47°F  30.10"
Wed 02:00 AM  53.1°F  52°F  calm  1 mph  9 mph  0.00"  95%  85%  52°F  48°F  30.10"
Wed 01:00 AM  53.5°F  53°F  4 mph SW  1 mph  6 mph  0.00"  96%  85%  52°F  48°F  30.11"
Wed 12:00 AM  53.8°F  53°F  2 mph SE  1 mph  11 mph  0.00"  96%  84%  53°F  48°F  30.10"
Tue 11:00 PM  54.1°F  55°F  6 mph SW  2 mph  12 mph  0.00"  96%  81%  53°F  49°F  30.09"
Tue 10:00 PM  55.0°F  56°F  6 mph S  2 mph  9 mph  0.00"  96%  80%  54°F  49°F  30.08"
Tue 09:00 PM  55.5°F  57°F  1 mph S  3 mph  8 mph  0.00"  96%  77%  54°F  50°F  30.06"
Tue 08:00 PM  55.8°F  59°F  2 mph S  4 mph  16 mph  0.00"  96%  72%  55°F  50°F  30.05"
Tue 07:00 PM  56.8°F  63°F  7 mph S  5 mph  15 mph  0.00"  94%  64%  55°F  50°F  30.03"
Tue 06:00 PM  62.6°F  66°F  3 mph SW  6 mph  12 mph  0.00"  80%  55%  56°F  49°F  30.00"
Tue 05:00 PM  64.1°F  69°F  6 mph SW  7 mph  15 mph  0.00"  75%  50%  56°F  49°F  29.99"
Tue 04:00 PM  65.2°F  70°F  9 mph S  6 mph  14 mph  0.00"  71%  46%  55°F  48°F  30.00"
Tue 03:00 PM  66.5°F  71°F  8 mph SW  6 mph  16 mph  0.00"  65%  45%  54°F  48°F  30.01"
Tue 02:00 PM  66.5°F  70°F  10 mph SW  5 mph  16 mph  0.00"  65%  45%  54°F  47°F  30.02"
Tue 01:00 PM  68.2°F  69°F  7 mph SW  4 mph  17 mph  0.00"  59%  47%  53°F  47°F  30.04"
Tue 12:00 PM  68.4°F  67°F  9 mph S  4 mph  11 mph  0.00"  57%  52%  52°F  48°F  30.06"
Tue 11:00 AM  65.2°F  63°F  4 mph S  3 mph  9 mph  0.00"  64%  61%  52°F  49°F  30.08"
Tue 10:00 AM  62.3°F  59°F  7 mph SE  3 mph  9 mph  0.00"  69%  71%  51°F  50°F  30.09"
Tue 09:00 AM  58.8°F  55°F  2 mph S  2 mph  4 mph  0.00"  78%  81%  52°F  49°F  30.08"
Tue 08:00 AM  52.5°F  51°F  calm  1 mph  4 mph  0.00"  90%  87%  50°F  47°F  30.07"
Tue 07:00 AM  49.2°F  50°F  1 mph E  1 mph  2 mph  0.00"  92%  88%  47°F  46°F  30.05"
Tue 06:00 AM  51.4°F  50°F  calm  1 mph  5 mph  0.00"  89%  87%  48°F  46°F  30.04"

  1. Current weather data. No green row appears if the current weather data is also the high or low for the current day.
  2. High temperature for the current day.
  3. Low temperature for the current day.

The French Valley, California weather pages are a service of WeatherCurrents. French Valley is located in southwestern Riverside County, California, north of Temecula, east of Murrieta, and south of Winchester. French Valley is bordered by Lake Skinner.
Copyright ©Wed Mar 20 17:22:17 PDT 2019  WeatherCurrents. All rights reserved. - Submit questions and comments - Privacy Policy

This page automatically refreshes every 10 minutes.